Time;durP1;ratioP1;P1;durP2;ratioP2;P2;SDS_P1;SDS_P2;PMS_P1;PMS_P2;Temp;Humidity;BMP_temperature;BMP_pressure;BME280_temperature;BME280_humidity;BME280_pressure;Samples;Min_cycle;Max_cycle;Signal;HPM_P1;HPM_P2
2021/10/18 00:01:25;;;;;;;37.70;15.57;;;11.50;88.20;;;;;;5059356;28;20060;-79
2021/10/18 00:03:51;;;;;;;23.38;15.52;;;11.50;88.10;;;;;;5060484;28;20123;-79
2021/10/18 00:06:16;;;;;;;23.70;15.55;;;11.50;88.50;;;;;;5077302;28;20008;-78
2021/10/18 00:08:42;;;;;;;23.58;15.50;;;11.50;88.60;;;;;;5080788;28;20039;-77
2021/10/18 00:11:07;;;;;;;24.75;14.85;;;11.50;88.60;;;;;;5069565;28;20114;-78
2021/10/18 00:13:33;;;;;;;24.25;15.57;;;11.40;88.50;;;;;;5075203;28;20027;-78
2021/10/18 00:15:59;;;;;;;23.77;15.02;;;11.50;88.70;;;;;;5075184;28;20044;-79
2021/10/18 00:18:25;;;;;;;22.92;16.05;;;11.50;88.80;;;;;;5057184;28;20488;-79
2021/10/18 00:20:50;;;;;;;24.67;15.40;;;11.40;89.10;;;;;;5057462;28;20027;-77
2021/10/18 00:23:16;;;;;;;22.45;14.73;;;11.40;89.30;;;;;;5070472;28;20093;-77
2021/10/18 00:25:41;;;;;;;24.75;15.57;;;11.40;89.20;;;;;;5086595;28;20088;-78
2021/10/18 00:28:07;;;;;;;26.35;16.50;;;11.40;89.30;;;;;;5056892;28;20025;-78
2021/10/18 00:30:33;;;;;;;24.48;15.18;;;11.40;89.00;;;;;;5056860;28;20473;-78
2021/10/18 00:32:58;;;;;;;25.15;15.18;;;11.40;88.90;;;;;;5057065;28;20031;-79
2021/10/18 00:35:24;;;;;;;21.45;15.25;;;11.30;88.90;;;;;;5075191;28;20068;-78
2021/10/18 00:37:50;;;;;;;22.48;14.30;;;11.40;89.20;;;;;;5074822;28;20524;-78
2021/10/18 00:40:15;;;;;;;25.38;16.45;;;11.40;89.00;;;;;;5056555;28;20384;-79
2021/10/18 00:42:42;;;;;;;25.63;15.80;;;11.40;89.00;;;;;;5056149;28;20487;-79
2021/10/18 00:45:09;;;;;;;23.55;15.23;;;11.40;88.90;;;;;;5056347;28;20098;-77
2021/10/18 00:47:35;;;;;;;24.90;14.95;;;11.40;89.10;;;;;;5056279;28;20457;-77
2021/10/18 00:50:02;;;;;;;21.83;14.60;;;11.40;89.10;;;;;;5056044;28;20032;-78
2021/10/18 00:52:28;;;;;;;20.40;15.32;;;11.40;90.00;;;;;;5056360;28;20056;-78
2021/10/18 00:54:55;;;;;;;20.00;14.65;;;11.40;89.10;;;;;;5056018;28;20029;-78
2021/10/18 00:57:21;;;;;;;20.63;14.65;;;11.40;89.10;;;;;;5056265;28;20025;-77
2021/10/18 00:59:47;;;;;;;23.67;14.75;;;11.40;89.30;;;;;;5056830;28;20487;-77
2021/10/18 01:02:13;;;;;;;25.17;15.25;;;11.40;89.40;;;;;;5074553;28;20116;-77
2021/10/18 01:04:40;;;;;;;22.00;15.07;;;11.40;89.40;;;;;;5075157;28;20032;-77
2021/10/18 01:07:06;;;;;;;26.85;16.48;;;11.40;89.30;;;;;;5057896;28;20070;-77
2021/10/18 01:09:32;;;;;;;24.23;15.23;;;11.30;89.10;;;;;;5074746;28;20020;-77
2021/10/18 01:11:57;;;;;;;22.45;15.93;;;11.30;89.10;;;;;;5076085;28;20059;-78
2021/10/18 01:14:23;;;;;;;29.70;15.95;;;11.20;89.10;;;;;;5059177;28;20530;-79
2021/10/18 01:16:48;;;;;;;23.45;16.58;;;11.20;89.20;;;;;;5073865;28;20458;-78
2021/10/18 01:19:16;;;;;;;28.73;16.73;;;11.20;89.20;;;;;;5073573;28;20525;-78
2021/10/18 01:21:43;;;;;;;23.50;15.10;;;11.10;89.40;;;;;;5074011;28;20055;-77
2021/10/18 01:24:09;;;;;;;26.60;16.80;;;11.00;89.50;;;;;;5055988;28;20189;-77
2021/10/18 01:26:35;;;;;;;23.70;15.23;;;11.00;89.90;;;;;;5055768;28;20116;-77
2021/10/18 01:29:01;;;;;;;24.90;16.15;;;10.90;90.00;;;;;;5055563;28;20056;-78
2021/10/18 01:31:27;;;;;;;22.92;15.68;;;10.90;90.10;;;;;;5073436;28;20437;-77
2021/10/18 01:33:52;;;;;;;27.75;16.83;;;10.90;90.20;;;;;;5055487;28;20469;-77
2021/10/18 01:36:19;;;;;;;24.45;17.63;;;10.90;90.20;;;;;;5055417;28;20036;-77
2021/10/18 01:38:45;;;;;;;25.08;17.40;;;10.80;90.20;;;;;;5055668;28;20021;-77
2021/10/18 01:41:10;;;;;;;24.63;16.73;;;10.80;90.40;;;;;;5055639;28;20115;-78
2021/10/18 01:43:36;;;;;;;22.45;16.80;;;10.80;90.50;;;;;;5056201;28;20025;-77
2021/10/18 01:46:03;;;;;;;28.67;18.23;;;10.80;90.60;;;;;;5056315;28;20026;-77
2021/10/18 01:48:29;;;;;;;24.15;17.48;;;10.80;90.60;;;;;;5056688;28;20354;-78
2021/10/18 01:50:54;;;;;;;26.90;17.50;;;10.70;90.70;;;;;;5074372;28;20460;-77
2021/10/18 01:53:20;;;;;;;28.60;18.85;;;10.70;90.70;;;;;;5058272;28;20031;-78
2021/10/18 01:55:46;;;;;;;28.38;17.70;;;10.80;90.80;;;;;;5062721;28;20076;-77
2021/10/18 01:58:12;;;;;;;30.83;18.50;;;10.80;90.80;;;;;;5080039;28;20076;-77
2021/10/18 02:00:42;;;;;;;27.17;18.75;;;10.70;90.90;;;;;;5073271;28;20035;-78
2021/10/18 02:03:08;;;;;;;27.43;18.87;;;10.70;90.80;;;;;;5055669;28;20029;-77
2021/10/18 02:05:33;;;;;;;24.95;18.38;;;10.80;90.90;;;;;;5072898;28;20267;-78
2021/10/18 02:07:59;;;;;;;25.90;17.65;;;10.80;90.90;;;;;;5054822;28;20052;-77
2021/10/18 02:10:24;;;;;;;28.35;18.40;;;10.80;91.00;;;;;;5073226;28;20075;-78
2021/10/18 02:12:51;;;;;;;26.45;18.55;;;10.80;91.00;;;;;;5073034;28;20031;-77
2021/10/18 02:15:17;;;;;;;25.60;18.95;;;10.80;91.00;;;;;;5072389;28;20123;-78
2021/10/18 02:17:44;;;;;;;26.50;18.48;;;10.80;91.10;;;;;;5055329;28;20025;-78
2021/10/18 02:20:11;;;;;;;29.17;19.80;;;10.80;91.00;;;;;;5072376;28;20025;-78
2021/10/18 02:22:37;;;;;;;30.52;19.88;;;10.90;91.00;;;;;;5054969;28;20016;-77
2021/10/18 02:25:05;;;;;;;26.77;18.00;;;10.90;91.00;;;;;;5076826;28;20024;-78
2021/10/18 02:27:30;;;;;;;27.88;19.35;;;10.90;90.90;;;;;;5087268;28;20024;-78
2021/10/18 02:29:56;;;;;;;29.75;19.33;;;10.90;91.00;;;;;;5054873;28;20135;-78
2021/10/18 02:32:21;;;;;;;29.73;18.98;;;10.90;91.00;;;;;;5054545;28;20047;-78
2021/10/18 02:34:47;;;;;;;29.55;19.90;;;10.90;91.00;;;;;;5054924;28;20033;-79
2021/10/18 02:37:12;;;;;;;25.77;18.20;;;10.80;91.10;;;;;;5054991;28;20036;-78
2021/10/18 02:39:38;;;;;;;26.90;19.40;;;10.80;91.00;;;;;;5055191;28;20020;-77
2021/10/18 02:42:04;;;;;;;31.02;20.30;;;10.80;90.90;;;;;;5054951;28;20031;-78
2021/10/18 02:44:29;;;;;;;28.15;18.80;;;10.80;90.90;;;;;;5055751;28;20070;-78
2021/10/18 02:46:55;;;;;;;31.48;19.05;;;10.80;90.90;;;;;;5055321;28;20016;-77
2021/10/18 02:49:21;;;;;;;28.75;19.08;;;10.70;91.00;;;;;;5055419;28;20025;-77
2021/10/18 02:51:48;;;;;;;25.08;17.60;;;10.70;91.40;;;;;;5054801;28;20377;-76
2021/10/18 02:54:14;;;;;;;31.67;19.50;;;10.70;91.50;;;;;;5054678;28;20025;-77
2021/10/18 02:56:40;;;;;;;27.77;19.23;;;10.60;91.20;;;;;;5055271;28;20044;-78
2021/10/18 02:59:06;;;;;;;32.25;20.60;;;10.60;91.10;;;;;;5072333;28;20359;-78
2021/10/18 03:01:32;;;;;;;27.90;20.30;;;10.60;91.20;;;;;;5072804;28;20027;-78
2021/10/18 03:03:57;;;;;;;32.47;21.25;;;10.60;91.20;;;;;;5055326;28;20115;-77
2021/10/18 03:06:23;;;;;;;31.85;20.90;;;10.50;91.30;;;;;;5072853;28;20052;-77
2021/10/18 03:08:48;;;;;;;28.75;19.35;;;10.50;91.30;;;;;;5073492;28;20051;-77
2021/10/18 03:11:15;;;;;;;28.92;20.70;;;10.50;91.30;;;;;;5054302;28;20021;-77
2021/10/18 03:13:40;;;;;;;27.50;20.80;;;10.50;91.30;;;;;;5054625;28;20380;-78
2021/10/18 03:16:06;;;;;;;28.80;21.58;;;10.50;91.30;;;;;;5054082;28;20108;-77
2021/10/18 03:18:31;;;;;;;32.08;20.75;;;10.50;91.30;;;;;;5072205;28;20456;-78
2021/10/18 03:20:57;;;;;;;31.80;19.40;;;10.40;91.30;;;;;;5054389;28;20025;-78
2021/10/18 03:23:22;;;;;;;29.55;21.42;;;10.40;91.20;;;;;;5054230;28;20027;-78
2021/10/18 03:25:48;;;;;;;33.03;21.80;;;10.40;91.20;;;;;;5072051;28;20033;-79
2021/10/18 03:28:14;;;;;;;32.38;23.55;;;10.40;91.30;;;;;;5054026;28;20032;-78
2021/10/18 03:30:39;;;;;;;28.58;19.98;;;10.40;91.40;;;;;;5054458;28;20028;-78
2021/10/18 03:33:05;;;;;;;30.05;20.70;;;10.40;91.40;;;;;;5074496;28;20384;-77
2021/10/18 03:35:30;;;;;;;31.35;21.85;;;10.40;91.50;;;;;;5058749;28;20028;-78
2021/10/18 03:37:56;;;;;;;30.15;22.35;;;10.30;91.40;;;;;;5059026;28;20028;-78
2021/10/18 03:40:22;;;;;;;29.00;21.70;;;10.40;91.40;;;;;;5058965;28;20028;-78
2021/10/18 03:42:48;;;;;;;27.83;21.90;;;10.30;91.30;;;;;;5059260;28;20048;-78
2021/10/18 03:45:14;;;;;;;30.45;21.98;;;10.40;91.30;;;;;;5079064;28;20028;-78
2021/10/18 03:47:40;;;;;;;28.30;19.98;;;10.30;91.30;;;;;;5074244;28;20036;-78
2021/10/18 03:50:07;;;;;;;30.25;22.35;;;10.30;91.30;;;;;;5097548;28;20047;-78
2021/10/18 03:52:33;;;;;;;34.97;23.42;;;10.30;91.20;;;;;;5087380;28;20020;-78
2021/10/18 03:54:58;;;;;;;34.38;23.63;;;10.30;91.30;;;;;;5075491;28;20125;-77
2021/10/18 03:57:24;;;;;;;33.05;21.58;;;10.20;91.30;;;;;;5057382;28;20481;-77
2021/10/18 03:59:50;;;;;;;33.13;22.95;;;10.20;91.40;;;;;;5075454;28;20082;-77
2021/10/18 04:02:15;;;;;;;33.55;23.02;;;10.20;91.40;;;;;;5057143;28;20066;-77
2021/10/18 04:04:41;;;;;;;33.63;23.27;;;10.10;91.30;;;;;;5057643;28;20100;-77
2021/10/18 04:07:07;;;;;;;32.95;22.10;;;10.10;91.40;;;;;;5075246;28;20021;-78
2021/10/18 04:09:33;;;;;;;32.25;22.85;;;10.00;91.40;;;;;;5057434;28;20119;-78
2021/10/18 04:11:59;;;;;;;34.42;21.67;;;10.00;91.40;;;;;;5057737;28;20535;-78
2021/10/18 04:14:25;;;;;;;31.60;22.75;;;9.90;91.50;;;;;;5057932;28;20029;-78
2021/10/18 04:16:50;;;;;;;31.60;22.95;;;9.90;91.50;;;;;;5076134;28;20033;-77
2021/10/18 04:19:16;;;;;;;31.88;23.38;;;9.90;91.50;;;;;;5075694;28;20025;-79
2021/10/18 04:21:41;;;;;;;30.80;23.08;;;9.90;91.70;;;;;;5076269;28;20503;-78
2021/10/18 04:24:07;;;;;;;35.55;22.60;;;9.90;91.60;;;;;;5057851;28;20078;-77
2021/10/18 04:26:33;;;;;;;32.92;22.88;;;9.80;91.70;;;;;;5076495;28;20025;-78
2021/10/18 04:28:59;;;;;;;31.73;22.98;;;9.70;91.70;;;;;;5059040;28;20177;-78
2021/10/18 04:31:28;;;;;;;35.60;23.35;;;9.70;91.70;;;;;;5077028;28;20020;-78
2021/10/18 04:33:56;;;;;;;35.35;25.30;;;9.60;91.70;;;;;;5074835;28;20129;-78
2021/10/18 04:36:22;;;;;;;30.20;21.75;;;9.70;91.80;;;;;;5056507;28;20028;-78
2021/10/18 04:38:48;;;;;;;36.80;23.70;;;9.60;91.80;;;;;;5074449;28;20078;-77
2021/10/18 04:41:14;;;;;;;30.35;23.67;;;9.60;91.80;;;;;;5074359;28;20431;-78
2021/10/18 04:43:39;;;;;;;34.65;24.42;;;9.60;91.90;;;;;;5073728;28;20029;-78
2021/10/18 04:46:05;;;;;;;33.45;23.35;;;9.50;91.90;;;;;;5073913;28;20029;-78
2021/10/18 04:48:31;;;;;;;31.58;23.80;;;9.40;92.00;;;;;;5074226;28;20056;-78
2021/10/18 04:50:56;;;;;;;33.75;23.63;;;9.40;92.10;;;;;;5056830;28;20024;-77
2021/10/18 04:53:22;;;;;;;35.55;24.73;;;9.40;92.10;;;;;;5056613;28;20354;-77
2021/10/18 04:55:47;;;;;;;33.33;22.88;;;9.30;92.20;;;;;;5074189;28;20102;-78
2021/10/18 04:58:13;;;;;;;30.10;23.63;;;9.30;92.20;;;;;;5056509;28;20020;-78
2021/10/18 05:00:43;;;;;;;34.63;23.58;;;9.30;92.20;;;;;;5074530;28;20039;-78
2021/10/18 05:03:09;;;;;;;34.55;23.48;;;9.30;92.20;;;;;;5074787;28;20040;-78
2021/10/18 05:05:35;;;;;;;32.30;23.65;;;9.30;92.20;;;;;;5075237;28;20025;-78
2021/10/18 05:08:06;;;;;;;32.17;22.92;;;9.20;92.20;;;;;;5056023;28;20457;-78
2021/10/18 05:10:32;;;;;;;33.53;23.98;;;9.20;92.20;;;;;;5073989;28;20032;-78
2021/10/18 05:12:58;;;;;;;34.05;24.52;;;9.20;92.20;;;;;;5056118;28;20020;-78
2021/10/18 05:15:24;;;;;;;37.47;25.95;;;9.20;92.30;;;;;;5073504;28;20024;-78
2021/10/18 05:17:49;;;;;;;34.97;24.92;;;9.20;92.30;;;;;;5055865;28;20116;-78
2021/10/18 05:20:15;;;;;;;35.95;26.55;;;9.20;92.40;;;;;;5055643;28;20027;-78
2021/10/18 05:22:41;;;;;;;40.35;24.83;;;9.20;92.30;;;;;;5074410;28;20028;-78
2021/10/18 05:25:08;;;;;;;37.75;24.13;;;9.20;92.50;;;;;;5074642;28;20036;-79
2021/10/18 05:27:34;;;;;;;34.40;24.98;;;9.10;92.40;;;;;;5056515;28;20056;-79
2021/10/18 05:30:00;;;;;;;39.17;26.20;;;9.10;92.50;;;;;;5056746;28;20054;-79
2021/10/18 05:32:26;;;;;;;39.55;24.42;;;9.10;92.60;;;;;;5074701;28;20025;-77
2021/10/18 05:34:51;;;;;;;36.97;27.02;;;9.20;92.60;;;;;;5057834;28;20029;-78
2021/10/18 05:37:17;;;;;;;42.30;26.67;;;9.10;92.60;;;;;;5083099;28;20028;-78
2021/10/18 05:39:42;;;;;;;37.15;26.52;;;9.10;92.80;;;;;;5096261;28;20028;-78
2021/10/18 05:42:11;;;;;;;38.72;25.17;;;9.10;92.90;;;;;;5088231;28;20020;-78
2021/10/18 05:44:37;;;;;;;38.08;26.90;;;9.20;93.00;;;;;;5074892;28;20112;-78
2021/10/18 05:47:03;;;;;;;35.40;26.58;;;9.20;93.20;;;;;;5073917;28;20060;-78
2021/10/18 05:49:29;;;;;;;40.55;27.67;;;9.30;93.30;;;;;;5055366;28;20042;-77
2021/10/18 05:51:55;;;;;;;41.50;27.00;;;9.30;93.30;;;;;;5055496;28;20052;-77
2021/10/18 05:54:20;;;;;;;37.83;26.63;;;9.30;93.30;;;;;;5055585;28;20052;-77
2021/10/18 05:56:46;;;;;;;42.45;26.25;;;9.30;93.30;;;;;;5055446;28;20033;-77
2021/10/18 05:59:12;;;;;;;45.08;28.05;;;9.40;93.20;;;;;;5055388;28;20063;-78
2021/10/18 06:01:37;;;;;;;41.28;28.60;;;9.40;93.20;;;;;;5054942;28;20521;-77
2021/10/18 06:04:04;;;;;;;40.72;26.58;;;9.40;93.20;;;;;;5073578;28;20034;-77
2021/10/18 06:06:33;;;;;;;39.60;26.10;;;9.40;93.10;;;;;;5073922;28;20025;-77
2021/10/18 06:08:58;;;;;;;39.15;26.95;;;9.40;93.10;;;;;;5055795;28;20033;-77
2021/10/18 06:11:24;;;;;;;37.47;27.40;;;9.40;93.00;;;;;;5071493;28;20499;-78
2021/10/18 06:13:50;;;;;;;39.90;27.17;;;9.50;93.00;;;;;;5053590;28;20039;-78
2021/10/18 06:16:15;;;;;;;39.95;27.65;;;9.50;93.00;;;;;;5071494;28;20071;-77
2021/10/18 06:18:41;;;;;;;41.42;26.83;;;9.50;92.90;;;;;;5071957;28;20030;-76
2021/10/18 06:21:06;;;;;;;37.75;26.63;;;9.50;92.80;;;;;;5053759;28;20016;-78
2021/10/18 06:23:32;;;;;;;36.28;25.98;;;9.50;92.80;;;;;;5053614;28;20420;-79
2021/10/18 06:25:58;;;;;;;36.70;23.85;;;9.60;92.90;;;;;;5071693;28;20056;-78
2021/10/18 06:28:24;;;;;;;34.85;24.45;;;9.70;92.80;;;;;;5053453;28;20044;-78
2021/10/18 06:30:49;;;;;;;34.22;24.35;;;9.90;92.50;;;;;;5072513;28;20029;-77
2021/10/18 06:33:15;;;;;;;37.30;25.17;;;10.00;92.00;;;;;;5054836;28;20067;-77
2021/10/18 06:35:41;;;;;;;35.83;24.35;;;10.00;91.60;;;;;;5055290;28;20380;-77
2021/10/18 06:38:15;;;;;;;37.70;25.80;;;10.00;91.60;;;;;;5072371;28;20028;-78
2021/10/18 06:40:45;;;;;;;39.45;26.13;;;10.00;91.70;;;;;;5054332;28;20036;-78
2021/10/18 06:43:11;;;;;;;34.47;24.92;;;10.00;91.90;;;;;;5072567;28;20101;-79
2021/10/18 06:45:37;;;;;;;35.28;24.73;;;10.00;92.00;;;;;;5054147;28;20024;-78
2021/10/18 06:48:03;;;;;;;36.63;24.48;;;10.20;91.70;;;;;;5054474;28;20385;-78
2021/10/18 06:50:30;;;;;;;37.75;25.63;;;10.30;91.50;;;;;;5072309;28;20025;-78
2021/10/18 06:52:56;;;;;;;33.17;25.58;;;10.50;91.30;;;;;;5053998;28;20039;-78
2021/10/18 06:55:23;;;;;;;31.98;24.90;;;10.40;91.10;;;;;;5072593;28;20263;-78
2021/10/18 06:57:49;;;;;;;35.40;25.40;;;10.50;90.90;;;;;;5072846;28;20024;-79
2021/10/18 07:00:15;;;;;;;39.45;25.98;;;10.40;91.00;;;;;;5054601;28;20480;-78
2021/10/18 07:02:40;;;;;;;43.00;27.80;;;10.30;91.20;;;;;;5072770;28;20036;-79
2021/10/18 07:05:06;;;;;;;37.78;25.15;;;10.30;91.40;;;;;;5054441;28;20032;-79
2021/10/18 07:07:32;;;;;;;33.08;26.02;;;10.40;91.50;;;;;;5055403;28;20036;-80
2021/10/18 07:10:01;;;;;;;35.83;25.30;;;10.60;91.40;;;;;;5058230;28;20024;-78
2021/10/18 07:12:31;;;;;;;34.78;24.10;;;10.70;90.90;;;;;;5075827;28;20375;-78
2021/10/18 07:14:58;;;;;;;;;;;10.80;90.40;;;;;;5058854;28;20028;-78
2021/10/18 07:17:24;;;;;;;34.17;25.25;;;10.90;90.30;;;;;;5058204;28;19912;-79
2021/10/18 07:19:51;;;;;;;31.60;22.88;;;10.80;90.40;;;;;;5058463;28;20514;-79
2021/10/18 07:22:18;;;;;;;36.65;25.10;;;10.70;90.50;;;;;;5058401;28;20021;-78
2021/10/18 07:24:44;;;;;;;29.80;22.30;;;10.70;90.50;;;;;;5078294;28;20067;-80
2021/10/18 07:27:10;;;;;;;32.22;23.02;;;10.70;90.50;;;;;;5069893;28;20016;-79
2021/10/18 07:29:35;;;;;;;32.20;23.77;;;10.80;90.40;;;;;;5098002;28;20035;-78
2021/10/18 07:32:01;;;;;;;33.20;22.05;;;10.90;90.40;;;;;;5091562;28;20059;-78
2021/10/18 07:34:27;;;;;;;30.65;22.73;;;11.00;90.00;;;;;;5058867;28;20027;-77
2021/10/18 07:36:53;;;;;;;35.83;23.58;;;11.10;89.50;;;;;;5059766;28;20358;-78
2021/10/18 07:39:23;;;;;;;29.50;21.60;;;11.20;88.90;;;;;;5057555;28;20035;-77
2021/10/18 07:41:51;;;;;;;29.10;22.02;;;11.30;88.60;;;;;;5058497;28;20021;-79
2021/10/18 07:44:17;;;;;;;33.22;21.48;;;11.40;89.00;;;;;;5057924;28;20491;-79
2021/10/18 07:46:44;;;;;;;30.33;21.10;;;11.60;87.90;;;;;;5057943;28;20031;-80
2021/10/18 07:49:10;;;;;;;28.45;19.05;;;11.70;87.20;;;;;;5058628;28;20028;-79
2021/10/18 07:51:36;;;;;;;28.50;19.48;;;11.80;86.50;;;;;;5058288;28;20028;-81
2021/10/18 07:54:03;;;;;;;29.65;20.05;;;11.90;86.10;;;;;;5077270;28;20381;-87
2021/10/18 07:56:28;;;;;;;28.52;18.88;;;11.90;85.30;;;;;;5058134;28;20147;-81
2021/10/18 07:58:54;;;;;;;26.10;19.30;;;12.00;86.00;;;;;;5059102;28;20453;-82
2021/10/18 08:01:20;;;;;;;29.75;18.00;;;12.10;85.50;;;;;;5059616;28;20056;-82
2021/10/18 08:03:45;;;;;;;29.02;19.83;;;12.40;85.10;;;;;;5077909;28;20036;-82
2021/10/18 08:06:11;;;;;;;30.05;19.65;;;12.50;83.10;;;;;;5060647;28;20020;-82
2021/10/18 08:08:44;;;;;;;24.23;18.70;;;12.60;83.10;;;;;;5067739;28;20070;-82
2021/10/18 08:11:11;;;;;;;26.05;18.77;;;12.60;82.60;;;;;;5071031;28;20096;-82
2021/10/18 08:13:37;;;;;;;27.73;18.73;;;12.60;82.70;;;;;;5086534;28;20518;-82
2021/10/18 08:16:03;;;;;;;25.98;18.80;;;12.70;82.60;;;;;;5065217;28;20032;-82
2021/10/18 08:18:29;;;;;;;30.38;19.02;;;12.70;82.40;;;;;;5062169;28;20397;-83
2021/10/18 08:20:55;;;;;;;21.77;17.52;;;12.90;82.40;;;;;;5058371;28;20052;-83
2021/10/18 08:23:23;;;;;;;21.45;14.13;;;13.10;81.10;;;;;;5058717;28;20139;-81
2021/10/18 08:25:49;;;;;;;27.67;16.55;;;13.20;80.50;;;;;;5071666;28;20028;-80
2021/10/18 08:28:15;;;;;;;22.83;16.30;;;13.20;81.10;;;;;;5056841;28;20329;-81
2021/10/18 08:30:41;;;;;;;23.48;17.73;;;13.20;79.80;;;;;;5057696;28;20017;-81
2021/10/18 08:33:06;;;;;;;25.20;17.02;;;13.20;79.80;;;;;;5058124;28;20031;-81
2021/10/18 08:35:33;;;;;;;22.27;16.08;;;13.20;80.00;;;;;;5064537;28;20028;-80
2021/10/18 08:45:53;;;;;;;20.77;15.02;;;13.20;80.20;;;;;;5074318;28;20032;-81
2021/10/18 08:48:19;;;;;;;22.75;15.93;;;13.30;80.50;;;;;;5056728;28;20036;-80
2021/10/18 08:50:47;;;;;;;24.50;14.50;;;13.50;79.80;;;;;;5056738;28;20029;-81
2021/10/18 08:53:13;;;;;;;23.70;16.17;;;13.70;79.00;;;;;;5057895;28;20017;-85
2021/10/18 08:55:40;;;;;;;25.25;16.15;;;13.80;78.60;;;;;;5056947;28;20380;-84
2021/10/18 08:58:08;;;;;;;22.40;15.52;;;13.90;78.20;;;;;;5074867;28;20029;-82
2021/10/18 09:00:42;;;;;;;20.35;14.50;;;14.00;77.20;;;;;;5056350;28;20020;-83
2021/10/18 09:03:22;;;;;;;18.30;13.60;;;14.10;77.20;;;;;;5077179;28;20107;-83
2021/10/18 09:05:48;;;;;;;;;;;14.30;76.20;;;;;;5056882;28;20028;-83
2021/10/18 09:08:32;;;;;;;21.40;13.65;;;14.40;76.40;;;;;;5074057;28;19912;-82
2021/10/18 09:11:08;;;;;;;15.25;10.75;;;14.50;74.80;;;;;;5074018;28;20050;-82
2021/10/18 09:13:35;;;;;;;18.20;12.85;;;14.70;77.20;;;;;;5054003;28;20472;-81
2021/10/18 09:16:01;;;;;;;23.35;14.43;;;14.80;75.40;;;;;;5055970;28;20524;-81
2021/10/18 09:18:27;;;;;;;15.23;10.38;;;14.90;74.00;;;;;;5096193;28;20035;-82
2021/10/18 09:20:53;;;;;;;19.38;14.02;;;15.00;75.20;;;;;;5078608;28;20024;-82
2021/10/18 09:23:38;;;;;;;16.73;11.73;;;15.10;74.00;;;;;;5062809;28;20373;-82
2021/10/18 09:26:09;;;;;;;16.67;12.63;;;15.10;74.80;;;;;;5043239;28;20047;-83
2021/10/18 09:28:36;;;;;;;16.17;9.60;;;15.20;74.10;;;;;;5039168;28;20032;-84
2021/10/18 09:31:02;;;;;;;20.38;14.45;;;15.20;76.00;;;;;;5055770;28;20020;-82
2021/10/18 09:33:38;;;;;;;17.42;12.95;;;15.10;74.20;;;;;;5055490;28;20030;-83
2021/10/18 09:36:07;;;;;;;16.63;11.65;;;15.20;73.90;;;;;;5055757;28;20020;-83
2021/10/18 09:38:33;;;;;;;16.27;12.38;;;15.20;73.80;;;;;;5056092;28;20116;-84
2021/10/18 09:41:00;;;;;;;21.60;14.93;;;15.30;74.00;;;;;;5056095;28;20025;-83
2021/10/18 09:43:36;;;;;;;17.08;12.45;;;15.40;75.10;;;;;;5039065;28;20059;-83
2021/10/18 10:53:54;;;;;;;15.70;11.13;;;15.70;72.40;;;;;;5074296;28;20033;-82
2021/10/18 10:56:43;;;;;;;20.45;14.23;;;15.80;76.50;;;;;;5072568;28;20424;-82
2021/10/18 10:59:22;;;;;;;19.55;13.70;;;15.90;72.10;;;;;;5040413;28;20102;-83
2021/10/18 11:01:53;;;;;;;15.70;10.02;;;16.10;72.80;;;;;;5048652;28;20033;-83
2021/10/18 11:04:40;;;;;;;18.92;13.80;;;16.40;75.80;;;;;;5034719;28;20271;-84
2021/10/18 11:07:09;;;;;;;22.83;15.82;;;16.80;72.10;;;;;;5044435;28;20025;-84
2021/10/18 11:09:53;;;;;;;17.80;13.35;;;17.20;66.90;;;;;;5075048;28;20045;-83
2021/10/18 11:12:43;;;;;;;20.23;13.73;;;17.50;68.50;;;;;;5053052;28;20033;-83
2021/10/18 11:15:12;;;;;;;22.33;14.63;;;17.70;68.00;;;;;;5034540;28;20025;-84
2021/10/18 11:17:50;;;;;;;21.65;13.80;;;17.60;69.10;;;;;;5034645;28;20416;-83
2021/10/18 11:20:21;;;;;;;19.55;14.35;;;17.70;71.40;;;;;;5035299;28;20112;-83
2021/10/18 11:22:56;;;;;;;12.52;7.90;;;17.50;69.70;;;;;;5043628;28;20124;-83
2021/10/18 11:25:30;;;;;;;18.95;10.40;;;17.20;73.20;;;;;;5033236;28;20374;-83
2021/10/18 11:27:59;;;;;;;21.77;15.95;;;17.00;76.50;;;;;;5037498;28;20055;-82
2021/10/18 11:30:28;;;;;;;17.35;13.80;;;17.00;73.20;;;;;;5041822;28;20028;-82
2021/10/18 11:32:59;;;;;;;12.32;9.85;;;17.00;70.10;;;;;;5034243;28;20054;-82
2021/10/18 11:35:27;;;;;;;20.75;14.88;;;16.90;73.80;;;;;;5035214;28;20036;-83
2021/10/18 11:38:04;;;;;;;19.20;14.27;;;16.90;71.80;;;;;;5035290;28;20048;-83
2021/10/18 11:40:38;;;;;;;21.50;14.52;;;17.00;71.50;;;;;;5039102;28;20025;-82
2021/10/18 11:43:06;;;;;;;20.70;14.50;;;17.00;70.40;;;;;;5035335;28;20055;-84
2021/10/18 11:45:35;;;;;;;16.63;12.13;;;17.00;72.50;;;;;;5034817;28;20025;-83
2021/10/18 11:48:13;;;;;;;20.13;14.20;;;17.10;71.30;;;;;;5053376;28;20052;-83
2021/10/18 11:50:47;;;;;;;17.30;12.00;;;17.20;71.30;;;;;;5034868;28;20099;-84
2021/10/18 11:53:23;;;;;;;18.05;12.48;;;17.40;73.90;;;;;;5035555;28;20164;-85
2021/10/18 11:55:52;;;;;;;13.23;8.68;;;17.30;71.00;;;;;;5038764;28;20108;-84
2021/10/18 11:58:20;;;;;;;21.77;15.98;;;17.40;73.90;;;;;;5038579;28;20025;-84
2021/10/18 12:00:46;;;;;;;17.10;12.02;;;17.20;68.20;;;;;;5049063;28;20040;-81
2021/10/18 12:03:16;;;;;;;18.52;13.80;;;17.10;72.40;;;;;;5043440;28;20033;-84
2021/10/18 12:05:48;;;;;;;17.67;11.63;;;17.10;70.70;;;;;;5038347;28;20029;-83
2021/10/18 12:08:16;;;;;;;15.95;10.85;;;17.10;72.90;;;;;;5038949;28;20021;-83
2021/10/18 12:10:43;;;;;;;22.70;15.10;;;17.10;73.70;;;;;;5038072;28;20488;-83
2021/10/18 12:13:26;;;;;;;18.02;13.60;;;17.00;71.30;;;;;;5038879;28;20025;-83
2021/10/18 12:15:52;;;;;;;13.40;8.73;;;17.00;71.40;;;;;;5038836;28;20021;-83
2021/10/18 12:18:21;;;;;;;11.98;9.15;;;16.90;75.90;;;;;;5040353;28;20315;-84
2021/10/18 12:20:49;;;;;;;16.90;12.38;;;16.80;76.60;;;;;;5038366;28;20017;-82
2021/10/18 12:23:18;;;;;;;16.88;11.85;;;16.70;74.50;;;;;;5056254;28;20052;-82
2021/10/18 12:25:58;;;;;;;17.25;12.07;;;16.60;74.10;;;;;;5037610;28;20025;-82
2021/10/18 12:28:24;;;;;;;14.05;10.07;;;16.60;74.10;;;;;;5037775;28;20134;-80
2021/10/18 12:30:50;;;;;;;17.20;12.63;;;16.60;74.40;;;;;;5037481;28;20477;-78
2021/10/18 12:33:16;;;;;;;12.35;7.82;;;16.60;75.30;;;;;;5038396;28;20070;-78
2021/10/18 12:35:42;;;;;;;14.60;10.63;;;16.50;77.10;;;;;;5057959;28;20560;-79
2021/10/18 12:38:13;;;;;;;16.85;11.02;;;16.50;76.20;;;;;;5059800;28;20063;-79
2021/10/18 12:40:42;;;;;;;20.73;14.70;;;16.50;74.80;;;;;;5041243;28;20533;-80
2021/10/18 12:43:26;;;;;;;18.65;14.32;;;16.50;74.10;;;;;;5038070;28;20017;-80
2021/10/18 12:45:52;;;;;;;22.80;14.05;;;16.50;73.00;;;;;;5038229;28;20057;-80
2021/10/18 12:48:22;;;;;;;21.10;13.98;;;16.50;73.50;;;;;;5037193;28;20369;-79
2021/10/18 12:50:49;;;;;;;15.40;12.32;;;16.50;75.70;;;;;;5055257;28;20032;-79
2021/10/18 12:53:28;;;;;;;14.23;9.18;;;16.40;77.20;;;;;;5037489;28;20025;-79
2021/10/18 12:55:53;;;;;;;18.15;13.43;;;16.30;76.10;;;;;;5038254;28;20036;-80
2021/10/18 12:58:23;;;;;;;16.48;10.68;;;16.20;73.40;;;;;;5069157;28;20025;-79
2021/10/18 13:00:49;;;;;;;17.48;12.50;;;16.30;75.70;;;;;;5056368;28;20025;-78
2021/10/18 13:03:20;;;;;;;12.07;8.48;;;16.30;74.70;;;;;;5046428;28;20021;-79
2021/10/18 13:05:59;;;;;;;19.15;12.20;;;16.30;76.70;;;;;;5036392;28;20028;-79
2021/10/18 13:08:26;;;;;;;15.45;10.32;;;16.30;73.90;;;;;;5036558;28;20112;-79
2021/10/18 13:10:54;;;;;;;23.38;14.60;;;16.30;75.10;;;;;;5035566;28;20491;-79
2021/10/18 13:13:22;;;;;;;14.77;10.98;;;16.40;69.80;;;;;;5035352;28;20036;-79
2021/10/18 13:15:50;;;;;;;17.65;11.70;;;16.40;74.30;;;;;;5036059;28;20037;-80
2021/10/18 13:18:19;;;;;;;17.15;12.02;;;16.30;73.60;;;;;;5054097;28;20454;-79
2021/10/18 13:20:52;;;;;;;12.93;9.20;;;16.30;72.80;;;;;;5036558;28;20017;-78
2021/10/18 13:23:21;;;;;;;16.02;10.27;;;16.20;73.60;;;;;;5037840;28;20026;-79
2021/10/18 13:25:46;;;;;;;14.18;10.40;;;16.20;72.80;;;;;;5053781;28;20021;-79
2021/10/18 13:28:13;;;;;;;16.30;11.13;;;16.20;75.70;;;;;;5063250;28;20025;-79
2021/10/18 13:30:41;;;;;;;12.70;8.23;;;16.30;72.50;;;;;;5056133;28;20051;-79
2021/10/18 13:33:07;;;;;;;17.88;12.25;;;16.20;74.30;;;;;;5039434;28;20422;-80
2021/10/18 13:35:33;;;;;;;14.25;8.52;;;16.30;71.20;;;;;;5056479;28;20499;-79
2021/10/18 13:37:59;;;;;;;12.48;7.20;;;16.40;73.70;;;;;;5073623;28;20028;-79
2021/10/18 13:40:27;;;;;;;17.40;9.80;;;16.50;76.20;;;;;;5042719;28;20021;-79
2021/10/18 13:42:53;;;;;;;18.45;10.60;;;16.80;74.50;;;;;;5035071;28;20025;-79
2021/10/18 13:45:21;;;;;;;15.85;10.05;;;16.80;72.50;;;;;;5039088;28;20071;-79
2021/10/18 13:47:47;;;;;;;14.63;9.88;;;16.80;73.00;;;;;;5047364;28;20032;-79